Time;durP1;ratioP1;P1;durP2;ratioP2;P2;SDS_P1;SDS_P2;PMS_P1;PMS_P2;Temp;Humidity;BMP_temperature;BMP_pressure;BME280_temperature;BME280_humidity;BME280_pressure;Samples;Min_cycle;Max_cycle;Signal;HPM_P1;HPM_P2
2022/11/21 04:50:27;;;;;;;;;;;;;;;10.35;63.62;96478.69;4233744;27;10445;-64
2022/11/21 04:52:30;;;;;;;;;;;;;;;10.62;62.88;96468.97;4230182;27;5120;-65
2022/11/21 04:54:33;;;;;;;;;;;;;;;10.83;62.66;96466.16;4229090;27;7707;-65
2022/11/21 04:56:37;;;;;;;;;;;;;;;11.01;62.70;96463.75;4238034;27;5651;-65
2022/11/21 04:58:39;;;;;;;;;;;;;;;11.16;62.17;96468.00;4230239;27;5676;-65
2022/11/21 05:00:42;;;;;;;;;;;;;;;11.27;62.00;96465.53;4228955;27;5839;-65
2022/11/21 05:02:45;;;;;;;;;;;;;;;11.34;61.79;96463.72;4224764;27;5785;-65
2022/11/21 05:04:48;;;;;;;;;;;;;;;11.43;61.90;96459.00;4242171;27;5785;-65
2022/11/21 05:06:52;;;;;;;;;;;;;;;11.50;61.67;96462.47;4236448;27;5754;-66
2022/11/21 05:08:55;;;;;;;;;;;;;;;11.57;61.63;96454.50;4235878;27;5675;-65
2022/11/21 05:13:21;;;;;;;;;;;;;;;11.64;61.47;96458.75;4224314;27;5632;-65
2022/11/21 05:15:24;;;;;;;;;;;;;;;11.64;61.49;96445.50;4240063;27;6005;-65
2022/11/21 05:17:28;;;;;;;;;;;;;;;11.65;61.45;96447.13;4233921;27;5766;-65
2022/11/21 05:19:31;;;;;;;;;;;;;;;11.65;61.21;96439.19;4244927;27;5635;-65
2022/11/21 05:21:34;;;;;;;;;;;;;;;11.69;61.27;96436.16;4231192;27;5874;-65
2022/11/21 05:23:38;;;;;;;;;;;;;;;11.71;60.97;96437.56;4236110;27;5794;-65
2022/11/21 05:25:41;;;;;;;;;;;;;;;11.72;60.83;96433.88;4230603;28;6406;-65
2022/11/21 05:27:43;;;;;;;;;;;;;;;11.74;60.98;96429.19;4233633;27;5857;-65
2022/11/21 05:29:46;;;;;;;;;;;;;;;11.74;60.78;96425.72;4245047;27;5668;-65
2022/11/21 05:31:49;;;;;;;;;;;;;;;11.73;60.58;96430.22;4229902;27;5668;-65
2022/11/21 05:33:51;;;;;;;;;;;;;;;11.76;60.87;96423.69;4231957;27;5765;-65
2022/11/21 05:35:54;;;;;;;;;;;;;;;11.74;60.42;96418.59;4232865;27;5663;-65
2022/11/21 05:37:57;;;;;;;;;;;;;;;11.75;60.51;96414.94;4234879;27;5635;-65
2022/11/21 05:40:01;;;;;;;;;;;;;;;11.75;60.33;96417.56;4235960;27;5749;-66
2022/11/21 05:42:04;;;;;;;;;;;;;;;11.77;60.60;96420.00;4234052;27;5680;-65
2022/11/21 05:44:06;;;;;;;;;;;;;;;11.78;60.52;96424.28;4228897;27;5858;-66
2022/11/21 05:46:09;;;;;;;;;;;;;;;11.78;60.38;96421.63;4227652;27;5708;-66
2022/11/21 05:48:12;;;;;;;;;;;;;;;11.77;59.96;96418.19;4229116;27;5930;-66
2022/11/21 05:50:15;;;;;;;;;;;;;;;11.75;60.04;96414.94;4236942;27;5760;-66
2022/11/21 05:52:17;;;;;;;;;;;;;;;11.73;60.08;96418.81;4225051;28;5755;-66
2022/11/21 05:54:20;;;;;;;;;;;;;;;11.72;60.09;96417.19;4219340;28;5658;-66
2022/11/21 05:56:24;;;;;;;;;;;;;;;11.73;59.91;96414.31;4225016;28;5702;-66
2022/11/21 05:58:28;;;;;;;;;;;;;;;11.76;60.02;96411.25;4226587;28;5696;-66
2022/11/21 06:00:32;;;;;;;;;;;;;;;11.78;59.60;96409.22;4220713;28;5750;-66
2022/11/21 06:04:55;;;;;;;;;;;;;;;11.75;59.56;96416.75;4218012;28;5751;-66
2022/11/21 06:06:58;;;;;;;;;;;;;;;11.74;59.74;96413.31;4217557;28;5747;-66
2022/11/21 06:09:01;;;;;;;;;;;;;;;11.75;59.64;96409.63;4219102;28;5841;-66
2022/11/21 06:11:05;;;;;;;;;;;;;;;11.76;59.29;96403.31;4219954;28;5664;-66
2022/11/21 06:13:20;;;;;;;;;;;;;;;11.76;59.09;96403.31;4216561;28;5767;-66
2022/11/21 06:15:24;;;;;;;;;;;;;;;11.75;59.45;96398.22;4225678;28;5866;-66
2022/11/21 06:17:26;;;;;;;;;;;;;;;11.76;59.34;96398.00;4217046;28;5770;-66
2022/11/21 06:19:29;;;;;;;;;;;;;;;11.75;59.02;96400.88;4225306;28;5745;-66
2022/11/21 06:21:33;;;;;;;;;;;;;;;11.77;59.33;96404.13;4225569;28;5676;-66
2022/11/21 06:23:36;;;;;;;;;;;;;;;11.81;59.00;96392.94;4216810;28;5787;-66
2022/11/21 06:25:39;;;;;;;;;;;;;;;11.80;59.01;96390.50;4229729;28;5669;-66
2022/11/21 06:27:42;;;;;;;;;;;;;;;11.82;58.64;96401.72;4218963;28;5798;-66
2022/11/21 06:29:46;;;;;;;;;;;;;;;11.82;58.84;96383.97;4219142;28;5684;-66
2022/11/21 06:31:49;;;;;;;;;;;;;;;11.83;58.94;96387.44;4217562;28;5665;-66
2022/11/21 06:33:53;;;;;;;;;;;;;;;11.85;58.53;96377.44;4218272;28;5673;-71
2022/11/21 06:35:55;;;;;;;;;;;;;;;11.83;58.58;96376.84;4223705;28;5743;-65
2022/11/21 06:37:59;;;;;;;;;;;;;;;11.82;58.36;96372.56;4219560;28;6544;-69
2022/11/21 06:40:01;;;;;;;;;;;;;;;11.83;58.14;96367.06;4215332;28;5746;-69
2022/11/21 06:42:04;;;;;;;;;;;;;;;11.82;58.52;96362.78;4224298;28;5693;-69
2022/11/21 06:44:07;;;;;;;;;;;;;;;11.85;58.28;96358.91;4216297;28;5695;-69
2022/11/21 06:46:12;;;;;;;;;;;;;;;11.85;58.09;96350.94;4220884;28;6066;-68
2022/11/21 06:48:15;;;;;;;;;;;;;;;11.87;57.87;96347.06;4221746;28;6816;-69
2022/11/21 06:50:18;;;;;;;;;;;;;;;11.89;58.03;96352.16;4227192;28;5636;-69
2022/11/21 06:52:21;;;;;;;;;;;;;;;11.88;57.74;96347.88;4235835;27;5729;-69
2022/11/21 06:54:23;;;;;;;;;;;;;;;11.89;57.81;96344.19;4212003;28;5972;-69
2022/11/21 06:56:28;;;;;;;;;;;;;;;11.88;57.65;96335.44;4213107;28;5819;-69
2022/11/21 06:58:31;;;;;;;;;;;;;;;11.90;57.79;96340.56;4216381;28;5638;-70
2022/11/21 07:00:34;;;;;;;;;;;;;;;11.88;57.53;96340.75;4217339;28;5717;-69
2022/11/21 07:02:38;;;;;;;;;;;;;;;11.87;57.80;96333.81;4216047;28;5634;-69
2022/11/21 07:04:41;;;;;;;;;;;;;;;11.90;57.24;96332.59;4214735;28;5846;-69
2022/11/21 07:06:44;;;;;;;;;;;;;;;11.91;57.23;96326.28;4217032;28;5672;-68
2022/11/21 07:08:47;;;;;;;;;;;;;;;11.94;57.51;96320.56;4225104;28;5689;-69
2022/11/21 07:11:12;;;;;;;;;;;;;;;11.95;57.50;96317.69;4215913;28;5758;-69
2022/11/21 07:13:29;;;;;;;;;;;;;;;11.94;57.06;96313.41;4209879;28;5627;-69
2022/11/21 07:15:32;;;;;;;;;;;;;;;11.94;56.98;96308.13;4217029;28;5690;-69
2022/11/21 07:17:35;;;;;;;;;;;;;;;11.95;57.22;96308.94;4215155;28;5679;-68
2022/11/21 07:19:39;;;;;;;;;;;;;;;11.91;57.00;96299.78;4203250;28;5878;-69
2022/11/21 07:21:43;;;;;;;;;;;;;;;11.89;57.14;96309.75;4215652;28;5673;-69
2022/11/21 07:23:45;;;;;;;;;;;;;;;11.89;56.70;96307.13;4220337;28;5904;-69
2022/11/21 07:25:51;;;;;;;;;;;;;;;11.89;56.76;96307.13;4209474;28;5102;-69
2022/11/21 07:27:54;;;;;;;;;;;;;;;11.85;56.65;96300.63;4210794;28;7683;-69
2022/11/21 07:29:57;;;;;;;;;;;;;;;11.84;56.68;96309.59;4217553;28;5694;-69
2022/11/21 07:32:00;;;;;;;;;;;;;;;11.83;56.45;96314.09;4222180;28;5666;-69
2022/11/21 07:34:02;;;;;;;;;;;;;;;11.83;56.61;96318.56;4219581;28;5725;-69
2022/11/21 07:36:07;;;;;;;;;;;;;;;11.85;56.54;96305.94;4217105;28;5767;-69
2022/11/21 07:38:10;;;;;;;;;;;;;;;11.87;56.17;96306.53;4216240;28;5808;-69
2022/11/21 07:40:13;;;;;;;;;;;;;;;11.87;55.87;96298.56;4220388;28;5791;-69
2022/11/21 07:42:16;;;;;;;;;;;;;;;11.87;56.03;96299.38;4213740;28;5845;-69
2022/11/21 07:44:19;;;;;;;;;;;;;;;11.89;55.88;96297.38;4208915;28;5679;-69
2022/11/21 07:46:22;;;;;;;;;;;;;;;11.89;56.12;96302.66;4220867;28;5677;-69
2022/11/21 07:48:24;;;;;;;;;;;;;;;11.89;55.65;96294.72;4214238;28;5890;-68
2022/11/21 07:50:28;;;;;;;;;;;;;;;11.89;55.54;96293.88;4212317;28;5687;-69
2022/11/21 07:52:32;;;;;;;;;;;;;;;11.87;55.66;96286.16;4216443;28;5854;-69
2022/11/21 07:54:35;;;;;;;;;;;;;;;11.88;55.55;96290.41;4215422;28;5762;-69
2022/11/21 07:56:38;;;;;;;;;;;;;;;11.88;55.65;96284.31;4222040;28;5777;-69
2022/11/21 07:58:40;;;;;;;;;;;;;;;11.87;55.43;96287.97;4220646;28;5735;-69
2022/11/21 08:00:43;;;;;;;;;;;;;;;11.87;55.24;96278.19;4221537;28;5866;-70
2022/11/21 08:02:46;;;;;;;;;;;;;;;11.90;55.09;96266.38;4219884;28;5950;-69
2022/11/21 08:04:49;;;;;;;;;;;;;;;11.91;54.94;96262.72;4214214;28;5850;-69
2022/11/21 08:06:52;;;;;;;;;;;;;;;11.95;54.95;96258.59;4213317;28;6353;-69
2022/11/21 08:08:56;;;;;;;;;;;;;;;11.95;55.09;96262.06;4213631;28;5798;-69
2022/11/21 08:11:04;;;;;;;;;;;;;;;11.98;55.10;96252.06;4218903;28;5089;-69
2022/11/21 08:13:06;;;;;;;;;;;;;;;12.00;54.97;96250.81;4209489;28;5623;-69
2022/11/21 08:15:10;;;;;;;;;;;;;;;11.97;55.01;96231.88;4213049;28;5664;-69
2022/11/21 08:17:13;;;;;;;;;;;;;;;11.95;54.90;96222.31;4217092;28;5838;-69
2022/11/21 08:19:17;;;;;;;;;;;;;;;11.97;54.71;96223.94;4215448;28;5693;-69
2022/11/21 08:21:19;;;;;;;;;;;;;;;11.96;54.61;96223.13;4212639;28;5739;-69
2022/11/21 08:23:22;;;;;;;;;;;;;;;11.97;54.62;96222.09;4222883;28;5676;-68
2022/11/21 08:25:26;;;;;;;;;;;;;;;11.98;54.39;96204.38;4215494;27;5672;-69
2022/11/21 08:27:29;;;;;;;;;;;;;;;11.98;54.52;96202.53;4213547;28;5668;-69
2022/11/21 08:29:32;;;;;;;;;;;;;;;11.98;54.41;96194.59;4213272;28;5872;-69
2022/11/21 08:31:36;;;;;;;;;;;;;;;12.00;54.27;96192.53;4212441;28;5705;-69
2022/11/21 08:33:39;;;;;;;;;;;;;;;11.98;54.53;96184.00;4216578;28;5668;-69
2022/11/21 08:35:42;;;;;;;;;;;;;;;11.98;54.11;96170.75;4214758;28;5676;-69
2022/11/21 08:37:45;;;;;;;;;;;;;;;12.00;54.05;96168.69;4211415;28;5901;-69
2022/11/21 08:39:48;;;;;;;;;;;;;;;12.01;54.53;96172.97;4223466;28;5847;-68
2022/11/21 08:42:04;;;;;;;;;;;;;;;12.04;54.07;96166.44;4220346;28;5631;-69
2022/11/21 08:44:07;;;;;;;;;;;;;;;12.07;53.83;96156.19;4212737;28;5615;-69
2022/11/21 08:46:16;;;;;;;;;;;;;;;12.09;54.10;96143.53;4214013;28;5643;-69
2022/11/21 08:48:19;;;;;;;;;;;;;;;12.07;54.22;96132.34;4222389;28;5839;-70
2022/11/21 08:50:23;;;;;;;;;;;;;;;12.09;53.98;96118.88;4215769;28;5654;-70
2022/11/21 08:52:26;;;;;;;;;;;;;;;12.10;54.13;96105.41;4212542;28;5804;-70
2022/11/21 08:54:29;;;;;;;;;;;;;;;12.09;53.91;96103.81;4205294;28;5737;-70
2022/11/21 08:56:32;;;;;;;;;;;;;;;12.10;53.69;96094.81;4215380;28;5747;-69
2022/11/21 08:58:36;;;;;;;;;;;;;;;12.12;53.99;96089.31;4217866;28;5688;-69
2022/11/21 09:00:39;;;;;;;;;;;;;;;12.12;54.04;96084.84;4228287;28;5679;-69
2022/11/21 09:02:42;;;;;;;;;;;;;;;12.13;53.92;96075.03;4220933;28;5665;-69
2022/11/21 09:04:44;;;;;;;;;;;;;;;12.15;53.95;96076.44;4212810;28;6686;-69
2022/11/21 09:06:47;;;;;;;;;;;;;;;12.13;53.97;96069.75;4211919;28;7046;-69
2022/11/21 09:08:50;;;;;;;;;;;;;;;12.13;54.01;96067.09;4214481;28;5684;-69
2022/11/21 09:10:55;;;;;;;;;;;;;;;12.13;53.80;96067.91;4214325;28;5667;-69
2022/11/21 09:12:59;;;;;;;;;;;;;;;12.17;53.92;96066.44;4202293;28;5678;-69
2022/11/21 09:19:44;;;;;;;;;;;;;;;12.16;54.07;96067.47;4213775;28;5654;-69
2022/11/21 09:21:49;;;;;;;;;;;;;;;12.15;54.28;96068.50;4219739;28;5755;-69
2022/11/21 09:23:52;;;;;;;;;;;;;;;12.14;53.91;96060.78;4217842;28;5688;-69
2022/11/21 09:25:55;;;;;;;;;;;;;;;12.11;54.06;96062.00;4216812;28;5672;-69
2022/11/21 09:27:59;;;;;;;;;;;;;;;12.12;54.03;96063.66;4219588;28;5660;-69
2022/11/21 09:30:04;;;;;;;;;;;;;;;12.11;54.00;96059.34;4233658;28;5647;-69
2022/11/21 09:32:07;;;;;;;;;;;;;;;12.09;54.26;96058.75;4217044;28;5630;-69
2022/11/21 09:34:10;;;;;;;;;;;;;;;12.11;54.19;96046.09;4225611;28;5634;-69
2022/11/21 09:36:13;;;;;;;;;;;;;;;12.10;54.16;96044.47;4217184;28;5786;-69
2022/11/21 09:38:16;;;;;;;;;;;;;;;12.08;53.93;96041.25;4218481;28;5658;-69
2022/11/21 09:40:26;;;;;;;;;;;;;;;12.04;54.41;96037.44;4210456;28;5731;-69
2022/11/21 09:42:49;;;;;;;;;;;;;;;12.05;54.30;96038.25;4218629;28;5654;-69
2022/11/21 09:45:13;;;;;;;;;;;;;;;12.05;54.06;96035.59;4216415;28;5766;-69
2022/11/21 09:47:22;;;;;;;;;;;;;;;12.05;54.18;96019.69;4216006;28;5921;-68
2022/11/21 09:49:25;;;;;;;;;;;;;;;12.07;54.16;96018.44;4216347;28;5891;-68
2022/11/21 09:51:30;;;;;;;;;;;;;;;12.06;54.02;96011.53;4217887;28;5784;-68
2022/11/21 09:53:38;;;;;;;;;;;;;;;12.06;54.29;96000.94;4218048;28;5778;-68
2022/11/21 09:55:44;;;;;;;;;;;;;;;12.09;54.11;96003.13;4217798;28;5894;-68
2022/11/21 09:57:49;;;;;;;;;;;;;;;12.10;53.86;95994.13;4226226;28;5681;-68
2022/11/21 09:59:53;;;;;;;;;;;;;;;12.10;53.76;95988.84;4222460;28;5738;-68
2022/11/21 10:01:58;;;;;;;;;;;;;;;12.09;53.87;95981.94;4220638;28;5671;-68
2022/11/21 10:04:02;;;;;;;;;;;;;;;12.11;53.93;95977.22;4217825;28;5848;-68
2022/11/21 10:06:17;;;;;;;;;;;;;;;12.13;53.73;95961.94;4217047;28;5840;-69
2022/11/21 10:08:30;;;;;;;;;;;;;;;12.16;53.72;95963.31;4218734;28;5674;-69
2022/11/21 10:10:50;;;;;;;;;;;;;;;12.18;53.52;95961.25;4218040;28;5766;-69
2022/11/21 10:13:11;;;;;;;;;;;;;;;12.16;53.88;95953.53;4231278;28;6289;-69
2022/11/21 10:15:23;;;;;;;;;;;;;;;12.16;53.83;95948.22;4216506;28;5668;-74
2022/11/21 10:17:41;;;;;;;;;;;;;;;12.18;53.68;95945.34;4211255;28;6468;-74
2022/11/21 10:20:01;;;;;;;;;;;;;;;12.15;53.36;95936.00;4218020;28;5674;-73
2022/11/21 10:22:36;;;;;;;;;;;;;;;12.17;53.55;95927.84;4222556;28;5675;-68
2022/11/21 10:24:48;;;;;;;;;;;;;;;12.17;53.36;95928.63;4225641;28;5779;-77
2022/11/21 10:26:54;;;;;;;;;;;;;;;12.21;53.67;95907.78;4208968;28;5672;-73
2022/11/21 10:29:02;;;;;;;;;;;;;;;12.21;53.35;95894.53;4217774;28;5647;-70
2022/11/21 10:31:11;;;;;;;;;;;;;;;12.23;53.56;95889.81;4218497;28;5932;-69
2022/11/21 10:33:23;;;;;;;;;;;;;;;12.23;53.45;95885.38;4223589;28;5714;-72
2022/11/21 10:35:34;;;;;;;;;;;;;;;12.26;53.31;95878.00;4208053;28;5733;-64
2022/11/21 10:37:38;;;;;;;;;;;;;;;12.27;53.01;95866.34;4211668;28;5810;-65
2022/11/21 10:39:44;;;;;;;;;;;;;;;12.28;53.13;95867.97;4212839;28;5742;-64
2022/11/21 10:41:53;;;;;;;;;;;;;;;12.31;53.11;95859.56;4226528;28;5728;-65
2022/11/21 10:46:25;;;;;;;;;;;;;;;12.36;52.93;95841.16;4224222;28;5735;-64
2022/11/21 10:48:30;;;;;;;;;;;;;;;12.36;52.78;95841.97;4206900;28;5711;-65
2022/11/21 10:50:40;;;;;;;;;;;;;;;12.36;52.81;95841.16;4217490;28;5936;-65
2022/11/21 10:52:48;;;;;;;;;;;;;;;12.37;52.83;95826.88;4213041;28;5877;-65
2022/11/21 10:55:07;;;;;;;;;;;;;;;12.40;52.86;95821.09;4221632;28;5759;-65
2022/11/21 10:57:14;;;;;;;;;;;;;;;12.41;52.93;95812.09;4214607;28;5831;-65
2022/11/21 10:59:24;;;;;;;;;;;;;;;12.42;52.94;95805.78;4217057;28;5726;-65
2022/11/21 11:01:34;;;;;;;;;;;;;;;12.46;52.56;95799.00;4231583;28;5104;-65
2022/11/21 11:03:39;;;;;;;;;;;;;;;12.47;52.71;95792.66;4222157;28;5652;-65
2022/11/21 11:05:55;;;;;;;;;;;;;;;12.49;52.73;95785.28;4217714;28;5744;-65
2022/11/21 11:08:05;;;;;;;;;;;;;;;12.51;52.47;95775.25;4216695;28;5676;-65
2022/11/21 11:10:16;;;;;;;;;;;;;;;12.52;52.35;95764.41;4209912;28;5756;-64
2022/11/21 11:14:52;;;;;;;;;;;;;;;12.55;52.52;95765.78;4226462;28;5651;-65
2022/11/21 11:16:55;;;;;;;;;;;;;;;12.53;52.37;95752.75;4212522;28;5770;-65
2022/11/21 11:19:02;;;;;;;;;;;;;;;12.51;52.23;95757.50;4215637;28;5703;-65
2022/11/21 11:21:18;;;;;;;;;;;;;;;12.50;52.36;95753.22;4229351;28;5654;-65
2022/11/21 11:23:26;;;;;;;;;;;;;;;12.52;52.37;95753.81;4216342;28;6674;-65
2022/11/21 11:25:35;;;;;;;;;;;;;;;12.54;52.13;95743.75;4217217;28;5951;-65
2022/11/21 11:27:38;;;;;;;;;;;;;;;12.58;52.13;95733.53;4217334;28;5656;-65
2022/11/21 11:29:51;;;;;;;;;;;;;;;12.59;52.18;95727.19;4221105;28;5691;-65
2022/11/21 11:31:57;;;;;;;;;;;;;;;12.60;51.87;95725.34;4224944;28;5101;-65
2022/11/21 11:34:01;;;;;;;;;;;;;;;12.60;51.85;95718.19;4220181;28;5815;-65
2022/11/21 11:36:19;;;;;;;;;;;;;;;12.61;51.86;95711.84;4212573;28;5772;-65
2022/11/21 11:38:26;;;;;;;;;;;;;;;12.60;52.09;95696.97;4215414;28;5671;-65
2022/11/21 11:40:35;;;;;;;;;;;;;;;12.62;51.80;95683.50;4211751;28;5685;-65
2022/11/21 11:47:51;;;;;;;;;;;;;;;12.67;51.84;95662.38;4222846;28;5876;-65
2022/11/21 11:50:14;;;;;;;;;;;;;;;12.68;51.61;95659.47;4219938;28;5869;-65
2022/11/21 11:52:17;;;;;;;;;;;;;;;12.69;51.76;95650.50;4214131;28;5665;-65
2022/11/21 11:54:26;;;;;;;;;;;;;;;12.70;51.62;95641.50;4214575;28;5680;-65
2022/11/21 11:56:33;;;;;;;;;;;;;;;12.71;51.62;95648.44;4221670;28;5638;-65
2022/11/21 11:58:42;;;;;;;;;;;;;;;12.72;51.50;95644.72;4232969;28;5846;-65
2022/11/21 12:00:48;;;;;;;;;;;;;;;12.73;51.52;95643.69;4214657;28;5675;-65
2022/11/21 12:02:58;;;;;;;;;;;;;;;12.74;51.34;95637.34;4229001;28;5754;-65
2022/11/21 12:05:09;;;;;;;;;;;;;;;12.76;51.31;95640.56;4212416;28;5679;-65
2022/11/21 12:07:18;;;;;;;;;;;;;;;12.77;51.28;95631.56;4216817;28;5766;-65
2022/11/21 12:09:51;;;;;;;;;;;;;;;12.79;51.32;95632.13;4218503;28;5664;-65
2022/11/21 12:12:06;;;;;;;;;;;;;;;12.78;51.21;95627.88;4223098;28;5737;-65
2022/11/21 12:16:37;;;;;;;;;;;;;;;12.81;50.96;95629.28;4206402;28;5733;-65
2022/11/21 12:18:50;;;;;;;;;;;;;;;12.80;51.05;95625.81;4204911;28;5693;-65
2022/11/21 12:21:04;;;;;;;;;;;;;;;12.79;50.68;95621.53;4207117;28;5697;-65
2022/11/21 12:23:10;;;;;;;;;;;;;;;12.80;50.83;95609.91;4220694;28;5667;-65
2022/11/21 12:25:14;;;;;;;;;;;;;;;12.81;50.83;95611.50;4219761;28;5762;-65
2022/11/21 12:27:27;;;;;;;;;;;;;;;12.81;50.93;95600.09;4219053;28;5753;-65
2022/11/21 12:29:43;;;;;;;;;;;;;;;12.80;51.02;95596.63;4219337;28;5722;-65
2022/11/21 12:31:58;;;;;;;;;;;;;;;12.81;50.62;95594.78;4214194;28;5976;-65
2022/11/21 12:34:11;;;;;;;;;;;;;;;12.83;50.91;95576.78;4217368;28;5652;-65
2022/11/21 12:36:26;;;;;;;;;;;;;;;12.82;50.98;95569.88;4216034;28;5672;-65
2022/11/21 12:38:47;;;;;;;;;;;;;;;12.81;50.92;95563.78;4209233;28;5844;-65
2022/11/21 12:42:47;;;;;;;;;;;;;;;12.81;50.67;95571.72;4208481;28;5840;-65
2022/11/21 12:43:41;;;;;;;;;;;;;;;12.79;50.96;95552.56;4212807;28;5763;-64
2022/11/21 12:45:50;;;;;;;;;;;;;;;12.81;50.83;95549.72;4211514;28;5730;-64
2022/11/21 12:55:36;;;;;;;;;;;;;;;12.81;50.80;95539.09;4212528;28;5679;-64
2022/11/21 12:57:50;;;;;;;;;;;;;;;12.82;50.90;95533.56;4208787;28;5914;-64
2022/11/21 13:00:02;;;;;;;;;;;;;;;12.79;50.94;95528.69;4212119;28;5741;-65
2022/11/21 13:02:17;;;;;;;;;;;;;;;12.80;51.16;95514.44;4215150;28;5752;-65
2022/11/21 13:04:24;;;;;;;;;;;;;;;12.80;50.83;95519.72;4220622;28;5642;-65
2022/11/21 13:06:30;;;;;;;;;;;;;;;12.81;51.29;95516.03;4207398;28;6000;-65
2022/11/21 13:08:37;;;;;;;;;;;;;;;12.82;51.06;95515.00;4214057;28;5692;-65
2022/11/21 13:10:48;;;;;;;;;;;;;;;12.80;51.25;95506.47;4217365;28;5665;-65
2022/11/21 13:12:59;;;;;;;;;;;;;;;12.80;51.13;95492.41;4216906;28;5668;-65
2022/11/21 13:15:14;;;;;;;;;;;;;;;12.79;51.30;95482.81;4215233;28;6463;-66
2022/11/21 13:17:29;;;;;;;;;;;;;;;12.80;51.00;95482.59;4214074;28;5895;-66
2022/11/21 13:19:42;;;;;;;;;;;;;;;12.79;51.36;95488.91;4214246;28;5877;-65
2022/11/21 13:21:47;;;;;;;;;;;;;;;12.80;51.10;95485.25;4216037;28;7939;-65
2022/11/21 13:23:51;;;;;;;;;;;;;;;12.81;50.96;95483.41;4212779;28;5832;-65
2022/11/21 13:25:54;;;;;;;;;;;;;;;12.79;50.88;95467.72;4213648;28;5667;-64
2022/11/21 13:28:29;;;;;;;;;;;;;;;12.78;50.98;95449.38;4212691;28;5849;-65
2022/11/21 13:30:32;;;;;;;;;;;;;;;12.79;50.77;95443.03;4214413;28;5643;-65
2022/11/21 13:32:39;;;;;;;;;;;;;;;12.78;50.84;95436.94;4212864;28;5802;-65
2022/11/21 13:34:44;;;;;;;;;;;;;;;12.76;51.13;95441.69;4214993;28;5639;-65
2022/11/21 13:36:48;;;;;;;;;;;;;;;12.77;50.92;95431.88;4211725;28;5688;-65
2022/11/21 13:39:27;;;;;;;;;;;;;;;12.79;51.00;95435.09;4216406;28;6491;-66
2022/11/21 13:44:39;;;;;;;;;;;;;;;12.76;50.71;95433.72;4191066;28;5891;-65
2022/11/21 13:46:58;;;;;;;;;;;;;;;12.75;50.79;95457.81;4190545;28;5769;-65
2022/11/21 13:49:12;;;;;;;;;;;;;;;12.72;50.58;95453.81;4197507;28;5651;-65
2022/11/21 13:51:48;;;;;;;;;;;;;;;12.74;50.71;95446.41;4197509;28;5646;-65
2022/11/21 13:54:10;;;;;;;;;;;;;;;12.74;50.60;95446.41;4191631;28;5635;-65
2022/11/21 13:56:25;;;;;;;;;;;;;;;12.76;50.60;95430.25;4199801;28;5683;-66
2022/11/21 13:58:45;;;;;;;;;;;;;;;12.76;50.41;95420.47;4180299;28;5800;-65
2022/11/21 14:01:00;;;;;;;;;;;;;;;12.76;50.24;95425.75;4197910;28;5785;-65
2022/11/21 14:03:39;;;;;;;;;;;;;;;12.77;50.52;95424.72;4197211;28;5686;-65
2022/11/21 14:05:59;;;;;;;;;;;;;;;12.76;50.32;95411.69;4155794;28;5817;-65
2022/11/21 14:08:19;;;;;;;;;;;;;;;12.74;50.45;95403.19;4198340;28;5750;-65
2022/11/21 14:10:33;;;;;;;;;;;;;;;12.75;50.18;95413.56;4197094;28;5785;-65
2022/11/21 14:12:40;;;;;;;;;;;;;;;12.73;50.35;95405.03;4207380;28;5968;-65
2022/11/21 14:15:11;;;;;;;;;;;;;;;12.73;50.25;95418.28;4214911;28;5832;-65
2022/11/21 14:17:39;;;;;;;;;;;;;;;12.72;50.04;95416.69;4213692;28;5672;-65
2022/11/21 14:19:43;;;;;;;;;;;;;;;12.70;50.14;95417.97;4216773;28;5748;-64
2022/11/21 14:21:47;;;;;;;;;;;;;;;12.69;50.47;95403.13;4213575;28;5700;-65
2022/11/21 14:23:51;;;;;;;;;;;;;;;12.68;50.00;95404.13;4215586;28;5679;-65
2022/11/21 14:25:57;;;;;;;;;;;;;;;12.68;50.08;95393.53;4213271;28;5866;-64
2022/11/21 14:28:03;;;;;;;;;;;;;;;12.71;50.27;95382.47;4218372;28;5672;-64
2022/11/21 14:30:21;;;;;;;;;;;;;;;12.70;50.24;95379.00;4210821;28;5803;-65
2022/11/21 14:32:28;;;;;;;;;;;;;;;12.71;50.01;95372.66;4211804;28;5845;-65
2022/11/21 14:34:32;;;;;;;;;;;;;;;12.72;49.94;95366.31;4212581;28;5689;-64
2022/11/21 14:36:38;;;;;;;;;;;;;;;12.72;49.82;95362.84;4216103;28;5066;-65
2022/11/21 14:38:44;;;;;;;;;;;;;;;12.73;50.18;95359.16;4211951;28;5683;-65
2022/11/21 14:41:28;;;;;;;;;;;;;;;12.73;49.99;95364.47;4227574;28;5733;-65
2022/11/21 14:43:33;;;;;;;;;;;;;;;12.72;50.22;95357.56;4214959;28;5798;-65
2022/11/21 14:45:39;;;;;;;;;;;;;;;12.73;50.10;95359.16;4216185;28;5753;-65
2022/11/21 14:47:48;;;;;;;;;;;;;;;12.73;49.76;95359.16;4216086;28;6389;-65
2022/11/21 14:49:55;;;;;;;;;;;;;;;12.73;49.85;95348.56;4218257;28;5684;-65
2022/11/21 14:52:17;;;;;;;;;;;;;;;12.74;49.88;95342.19;4225047;28;5681;-65
2022/11/21 14:54:24;;;;;;;;;;;;;;;12.75;50.02;95343.81;4218318;28;5661;-66
2022/11/21 14:56:29;;;;;;;;;;;;;;;12.74;50.21;95335.03;4209381;28;5726;-65
2022/11/21 14:58:34;;;;;;;;;;;;;;;12.72;50.24;95331.84;4217152;28;5759;-65
2022/11/21 15:00:40;;;;;;;;;;;;;;;12.73;49.92;95335.28;4222299;28;6460;-66
2022/11/21 15:03:02;;;;;;;;;;;;;;;12.73;49.83;95327.34;4211804;28;5890;-66
2022/11/21 15:05:13;;;;;;;;;;;;;;;12.73;49.99;95320.19;4213169;28;5684;-65
2022/11/21 15:07:40;;;;;;;;;;;;;;;12.73;50.22;95316.72;4218026;28;5660;-65
2022/11/21 15:09:45;;;;;;;;;;;;;;;12.71;50.12;95306.38;4215504;28;5668;-65
2022/11/21 15:12:09;;;;;;;;;;;;;;;12.67;50.09;95307.88;4214045;28;5751;-65
2022/11/21 15:14:24;;;;;;;;;;;;;;;12.68;50.06;95303.38;4216072;28;5679;-65
2022/11/21 15:16:27;;;;;;;;;;;;;;;12.69;50.21;95311.13;4204032;28;6379;-65
2022/11/21 15:18:32;;;;;;;;;;;;;;;12.69;50.07;95308.47;4217081;28;5788;-65
2022/11/21 15:20:36;;;;;;;;;;;;;;;12.69;49.90;95295.22;4216609;28;5680;-65
2022/11/21 15:22:41;;;;;;;;;;;;;;;12.70;49.79;95307.41;4214859;28;5722;-65
2022/11/21 15:24:44;;;;;;;;;;;;;;;12.70;50.01;95312.72;4218551;28;5864;-65
2022/11/21 15:26:50;;;;;;;;;;;;;;;12.68;50.24;95298.88;4206458;28;5823;-65
2022/11/21 15:28:54;;;;;;;;;;;;;;;12.67;49.94;95297.28;4216316;28;5721;-65
2022/11/21 15:31:20;;;;;;;;;;;;;;;12.67;50.36;95293.81;4213478;28;5668;-65
2022/11/21 15:33:23;;;;;;;;;;;;;;;12.67;50.08;95304.44;4207422;28;5697;-65
2022/11/21 15:35:27;;;;;;;;;;;;;;;12.66;50.15;95285.06;4210755;28;5713;-66
2022/11/21 15:37:34;;;;;;;;;;;;;;;12.67;50.16;95283.22;4210083;28;5780;-65
2022/11/21 15:39:43;;;;;;;;;;;;;;;12.67;50.41;95281.38;4210482;28;5701;-65
2022/11/21 15:41:46;;;;;;;;;;;;;;;12.64;50.06;95276.56;4220290;28;5663;-65
2022/11/21 15:43:50;;;;;;;;;;;;;;;12.68;50.13;95282.16;4213406;28;5660;-65
2022/11/21 15:46:01;;;;;;;;;;;;;;;12.68;50.11;95279.53;4214445;28;5668;-65
2022/11/21 15:48:05;;;;;;;;;;;;;;;12.69;50.17;95283.81;4214341;28;5664;-65
2022/11/21 15:50:08;;;;;;;;;;;;;;;12.70;50.10;95280.91;4215310;28;5101;-66
2022/11/21 15:52:12;;;;;;;;;;;;;;;12.69;50.32;95291.75;4219110;28;5665;-65
2022/11/21 15:54:17;;;;;;;;;;;;;;;12.72;50.21;95288.63;4224605;28;5755;-65
2022/11/21 15:56:29;;;;;;;;;;;;;;;12.69;50.51;95284.59;4205444;28;5821;-65
2022/11/21 15:58:32;;;;;;;;;;;;;;;12.69;50.25;95278.50;4224817;28;5677;-65
2022/11/21 16:00:35;;;;;;;;;;;;;;;12.69;50.52;95276.66;4215175;28;5866;-66
2022/11/21 16:02:38;;;;;;;;;;;;;;;12.70;50.42;95278.25;4217601;28;5683;-65
2022/11/21 16:04:42;;;;;;;;;;;;;;;12.70;50.26;95288.84;4208947;28;5910;-65
2022/11/21 16:06:45;;;;;;;;;;;;;;;12.70;50.33;95278.25;4226552;28;5658;-65
2022/11/21 16:08:50;;;;;;;;;;;;;;;12.67;50.30;95276.06;4224122;27;5687;-65
2022/11/21 16:10:53;;;;;;;;;;;;;;;12.68;50.23;95298.06;4214682;28;5691;-65
2022/11/21 16:12:56;;;;;;;;;;;;;;;12.68;50.40;95298.88;4213996;28;5819;-65
2022/11/21 16:14:59;;;;;;;;;;;;;;;12.68;50.03;95298.88;4206374;28;5672;-65
2022/11/21 16:17:02;;;;;;;;;;;;;;;12.68;50.26;95300.72;4216615;28;5680;-65
2022/11/21 16:19:05;;;;;;;;;;;;;;;12.64;50.37;95300.41;4214708;28;5706;-65
2022/11/21 16:21:10;;;;;;;;;;;;;;;12.64;50.26;95313.69;4217044;28;5796;-65
2022/11/21 16:23:13;;;;;;;;;;;;;;;12.65;50.71;95315.28;4220954;28;5842;-65
2022/11/21 16:25:16;;;;;;;;;;;;;;;12.56;50.67;95316.72;4219820;28;5846;-65
2022/11/21 16:27:19;;;;;;;;;;;;;;;12.51;50.68;95319.31;4222671;28;5751;-65
2022/11/21 16:29:22;;;;;;;;;;;;;;;12.45;51.09;95314.94;4209754;28;5693;-65
2022/11/21 16:31:27;;;;;;;;;;;;;;;12.39;51.11;95326.53;4217486;28;5654;-65
2022/11/21 16:33:30;;;;;;;;;;;;;;;12.32;51.14;95325.88;4217066;28;5680;-65
2022/11/21 16:35:33;;;;;;;;;;;;;;;12.29;51.11;95315.75;4216731;28;5679;-65